Saint-Leger, Belgium
Current Conditions -  °F | °C
As of 4:20 AM on Tuesday 27 Jan 2015 (Local Time) from ELLX Reporting Station
NA  
Wind Chill: 29°   Ceiling: NA
Heat Index: 34°   Visibility: 6mi
Dew Point: 32°   Wind: 6mph
Humidity: 93%   Direction: 290°WNW
Pressure: 30.15"   Gusts: NA
Location:  49.61°N, 5.66°E
Report Text: ELLX 270320Z AUTO 29005KT 270V330 9999 NDV 01/00 Q1021
Loading
Personal Weather Stations






























Interactive Weather Map New forecast layout! Learn more

10-Day Weather Forecast

Advertisements
Track Severe Weather on mobile